Time;durP1;ratioP1;P1;durP2;ratioP2;P2;SDS_P1;SDS_P2;PMS_P1;PMS_P2;Temp;Humidity;BMP_temperature;BMP_pressure;BME280_temperature;BME280_humidity;BME280_pressure;Samples;Min_cycle;Max_cycle;Signal;HPM_P1;HPM_P2
2022/11/14 00:01:57;;;;;;;70.45;49.50;;;;;;;4.03;100.00;100550.06;4898825;29;20028;-85
2022/11/14 00:04:22;;;;;;;74.45;48.45;;;;;;;4.05;100.00;100554.38;4899219;29;20368;-85
2022/11/14 00:06:47;;;;;;;69.75;47.20;;;;;;;4.08;100.00;100566.38;4881830;29;20035;-85
2022/11/14 00:09:13;;;;;;;70.78;46.38;;;;;;;4.07;100.00;100564.66;4898805;29;20096;-85
2022/11/14 00:11:38;;;;;;;74.78;51.00;;;;;;;4.06;100.00;100562.97;4881854;29;20064;-85
2022/11/14 00:14:03;;;;;;;75.25;49.22;;;;;;;4.04;100.00;100564.66;4898438;29;20032;-85
2022/11/14 00:16:29;;;;;;;68.47;46.47;;;;;;;3.94;100.00;100545.84;4898691;29;20108;-85
2022/11/14 00:18:54;;;;;;;64.00;44.95;;;;;;;3.95;100.00;100553.53;4881631;29;20476;-85
2022/11/14 00:21:19;;;;;;;63.45;43.50;;;;;;;3.92;100.00;100553.59;4898528;29;20095;-85
2022/11/14 00:23:45;;;;;;;70.10;47.42;;;;;;;3.80;100.00;100527.03;4898301;29;20031;-85
2022/11/14 00:26:10;;;;;;;75.88;48.25;;;;;;;3.85;100.00;100543.31;4898367;29;20032;-85
2022/11/14 00:28:35;;;;;;;63.35;43.40;;;;;;;3.88;100.00;100548.44;4881451;29;20028;-85
2022/11/14 00:31:01;;;;;;;66.38;41.90;;;;;;;3.79;100.00;100533.88;4898288;29;20361;-85
2022/11/14 00:33:26;;;;;;;63.25;41.88;;;;;;;3.83;100.00;100548.44;4881591;29;20377;-85
2022/11/14 00:35:53;;;;;;;67.53;43.70;;;;;;;3.79;100.00;100543.31;4881330;29;20106;-85
2022/11/14 00:38:18;;;;;;;59.65;41.45;;;;;;;3.82;100.00;100551.03;4881264;29;20028;-85
2022/11/14 00:40:44;;;;;;;66.30;41.63;;;;;;;3.73;100.00;100545.06;4897915;29;20369;-85
2022/11/14 00:43:09;;;;;;;65.60;41.92;;;;;;;3.68;100.00;100546.81;4881252;29;20028;-85
2022/11/14 00:45:35;;;;;;;74.63;47.78;;;;;;;3.69;100.00;100556.25;4898223;29;20469;-85
2022/11/14 00:48:00;;;;;;;84.22;52.53;;;;;;;3.63;100.00;100555.44;4897612;29;20120;-85
2022/11/14 00:50:25;;;;;;;79.35;51.33;;;;;;;3.63;100.00;100558.84;4898133;29;20520;-85
2022/11/14 00:52:51;;;;;;;66.28;44.83;;;;;;;3.59;100.00;100554.59;4897796;29;20461;-85
2022/11/14 00:55:16;;;;;;;61.63;42.85;;;;;;;3.58;100.00;100547.72;4897898;29;20524;-85
2022/11/14 00:57:41;;;;;;;64.03;43.30;;;;;;;3.58;100.00;100554.56;4880906;29;20471;-85
2022/11/14 01:00:08;;;;;;;63.88;43.45;;;;;;;3.52;100.00;100545.16;4881005;29;20448;-85
2022/11/14 01:02:34;;;;;;;66.80;42.72;;;;;;;3.57;100.00;100543.41;4881050;29;20087;-85
2022/11/14 01:04:59;;;;;;;62.40;42.15;;;;;;;3.58;100.00;100544.25;4897659;29;20099;-85
2022/11/14 01:07:24;;;;;;;58.85;40.45;;;;;;;3.45;100.00;100526.28;4897867;29;20116;-85
2022/11/14 01:09:50;;;;;;;57.22;39.33;;;;;;;3.54;100.00;100540.88;4897540;29;20418;-85
2022/11/14 01:12:15;;;;;;;54.83;37.70;;;;;;;3.41;100.00;100522.03;4897537;29;20021;-85
2022/11/14 01:14:40;;;;;;;66.13;45.47;;;;;;;3.47;100.00;100531.44;4881002;29;20037;-85
2022/11/14 01:17:06;;;;;;;74.00;45.95;;;;;;;3.49;100.00;100530.56;4880554;29;20112;-85
2022/11/14 01:19:31;;;;;;;65.97;44.90;;;;;;;3.55;100.00;100539.16;4897450;29;20116;-85
2022/11/14 01:21:57;;;;;;;65.78;42.25;;;;;;;3.52;100.00;100527.13;4880179;29;20059;-85
2022/11/14 01:24:22;;;;;;;65.50;42.47;;;;;;;3.48;100.00;100526.28;4880640;29;20032;-85
2022/11/14 01:26:48;;;;;;;62.88;41.78;;;;;;;3.42;100.00;100512.59;4896980;29;20032;-85
2022/11/14 01:29:13;;;;;;;71.20;47.30;;;;;;;3.50;100.00;100527.13;4897462;29;20021;-85
2022/11/14 01:31:38;;;;;;;62.72;41.67;;;;;;;3.49;100.00;100519.41;4897468;29;20032;-85
2022/11/14 01:34:03;;;;;;;55.88;40.28;;;;;;;3.43;100.00;100512.56;4897108;29;20549;-85
2022/11/14 01:36:29;;;;;;;54.33;37.70;;;;;;;3.43;100.00;100511.72;4880368;29;20025;-85
2022/11/14 01:38:54;;;;;;;59.67;39.88;;;;;;;3.45;100.00;100518.56;4880203;29;20076;-85
2022/11/14 01:41:21;;;;;;;53.70;37.05;;;;;;;3.44;100.00;100521.16;4897058;29;20080;-85
2022/11/14 01:43:46;;;;;;;54.40;36.70;;;;;;;3.36;100.00;100502.28;4857477;29;20041;-85
2022/11/14 01:46:17;;;;;;;57.88;37.75;;;;;;;3.41;100.00;100513.41;4842165;29;20041;-85
2022/11/14 01:48:54;;;;;;;51.92;37.63;;;;;;;3.40;100.00;100509.13;4841992;29;20205;-85
2022/11/14 01:51:23;;;;;;;50.78;35.22;;;;;;;3.42;100.00;100497.13;4857621;29;20038;-85
2022/11/14 01:53:52;;;;;;;55.40;36.35;;;;;;;3.37;100.00;100484.28;4841653;29;20093;-85
2022/11/14 01:56:23;;;;;;;54.20;37.17;;;;;;;3.43;100.00;100483.38;4857465;29;20484;-85
2022/11/14 01:58:55;;;;;;;54.30;38.88;;;;;;;3.24;100.00;100446.53;4857086;29;20041;-85
2022/11/14 02:01:20;;;;;;;48.50;34.30;;;;;;;3.33;100.00;100461.97;4841260;29;20045;-85
2022/11/14 02:03:48;;;;;;;47.47;34.92;;;;;;;3.31;100.00;100455.97;4841846;29;20037;-85
2022/11/14 02:06:18;;;;;;;49.45;34.60;;;;;;;3.35;100.00;100461.97;4857331;29;20470;-85
2022/11/14 02:08:44;;;;;;;48.58;34.33;;;;;;;3.33;100.00;100464.56;4841809;29;20037;-85
2022/11/14 02:11:10;;;;;;;49.28;35.22;;;;;;;3.35;100.00;100464.53;4857115;29;20040;-85
2022/11/14 02:13:37;;;;;;;53.75;36.80;;;;;;;3.34;100.00;100465.41;4842564;29;20113;-84
2022/11/14 02:16:02;;;;;;;50.67;34.38;;;;;;;3.33;100.00;100467.13;4879868;29;20124;-85
2022/11/14 02:18:28;;;;;;;45.97;33.60;;;;;;;3.32;100.00;100456.81;4896798;29;20560;-85
2022/11/14 02:20:53;;;;;;;46.58;33.55;;;;;;;3.35;100.00;100461.97;4896561;29;20032;-85
2022/11/14 02:23:26;;;;;;;43.45;31.45;;;;;;;3.28;100.00;100447.38;4880004;29;20052;-85
2022/11/14 02:25:52;;;;;;;45.05;32.97;;;;;;;3.33;100.00;100454.25;4896684;29;20476;-85
2022/11/14 02:28:19;;;;;;;47.10;32.78;;;;;;;3.33;100.00;100455.94;4896702;29;20029;-85
2022/11/14 02:30:44;;;;;;;45.80;33.33;;;;;;;3.23;100.00;100439.69;4879890;29;20048;-85
2022/11/14 02:33:10;;;;;;;45.05;34.15;;;;;;;3.30;100.00;100445.69;4879642;29;20461;-85
2022/11/14 02:35:35;;;;;;;44.78;32.30;;;;;;;3.31;100.00;100449.97;4879688;29;20027;-85
2022/11/14 02:38:00;;;;;;;47.42;33.90;;;;;;;3.24;100.00;100438.81;4896477;29;20108;-85
2022/11/14 02:40:26;;;;;;;42.55;32.28;;;;;;;3.27;100.00;100440.53;4896805;29;20099;-85
2022/11/14 02:42:51;;;;;;;42.00;33.28;;;;;;;3.25;100.00;100437.97;4896457;29;20099;-85
2022/11/14 02:45:18;;;;;;;45.25;33.78;;;;;;;3.27;100.00;100440.53;4879804;29;20089;-85
2022/11/14 02:47:43;;;;;;;50.10;35.40;;;;;;;3.18;100.00;100436.28;4896622;29;20028;-85
2022/11/14 02:50:09;;;;;;;49.50;35.92;;;;;;;3.20;100.00;100437.13;4896462;29;20488;-85
2022/11/14 02:52:34;;;;;;;52.67;36.13;;;;;;;3.11;100.00;100430.28;4879974;29;20472;-85
2022/11/14 02:55:00;;;;;;;48.35;36.22;;;;;;;3.08;100.00;100429.47;4896359;29;20024;-85
2022/11/14 02:57:25;;;;;;;50.20;35.35;;;;;;;3.14;100.00;100439.72;4896451;29;20024;-85
2022/11/14 02:59:50;;;;;;;52.97;38.85;;;;;;;3.10;100.00;100441.44;4896505;29;20060;-85
2022/11/14 03:02:15;;;;;;;59.55;42.97;;;;;;;3.08;100.00;100440.63;4879319;29;20028;-85
2022/11/14 03:04:41;;;;;;;61.00;41.83;;;;;;;3.06;100.00;100444.91;4879487;29;20084;-85
2022/11/14 03:07:06;;;;;;;51.13;37.95;;;;;;;3.06;100.00;100439.75;4879535;29;20106;-85
2022/11/14 03:09:32;;;;;;;49.28;34.58;;;;;;;2.95;100.00;100429.50;4879669;29;20029;-85
2022/11/14 03:11:57;;;;;;;53.30;39.40;;;;;;;3.02;100.00;100443.19;4897826;29;20028;-85
2022/11/14 03:14:22;;;;;;;57.78;41.17;;;;;;;2.91;100.00;100424.38;4882907;29;20056;-85
2022/11/14 03:16:48;;;;;;;60.72;42.50;;;;;;;2.94;100.00;100435.50;4882881;29;20043;-85
2022/11/14 03:19:13;;;;;;;59.97;40.70;;;;;;;2.93;100.00;100430.34;4882531;29;20031;-85
2022/11/14 03:21:38;;;;;;;56.75;39.28;;;;;;;2.92;100.00;100428.66;4899806;29;20472;-85
2022/11/14 03:24:04;;;;;;;61.72;42.00;;;;;;;2.85;100.00;100422.66;4882464;29;20433;-85
2022/11/14 03:26:29;;;;;;;64.40;43.03;;;;;;;2.91;100.00;100421.81;4899488;29;20020;-85
2022/11/14 03:28:55;;;;;;;61.60;42.15;;;;;;;2.92;100.00;100434.66;4899325;29;20044;-85
2022/11/14 03:31:20;;;;;;;68.35;44.80;;;;;;;2.90;100.00;100435.50;4882633;29;20370;-85
2022/11/14 03:33:45;;;;;;;67.43;45.20;;;;;;;2.92;100.00;100444.09;4882509;29;20025;-85
2022/11/14 03:36:11;;;;;;;64.78;45.50;;;;;;;2.92;100.00;100441.53;4899438;29;20024;-85
2022/11/14 03:38:37;;;;;;;72.70;47.80;;;;;;;2.84;100.00;100425.25;4899566;29;20082;-85
2022/11/14 03:41:02;;;;;;;59.42;43.38;;;;;;;3.00;100.00;100444.94;4882380;29;20025;-85
2022/11/14 03:43:33;;;;;;;81.22;53.08;;;;;;;2.99;100.00;100427.75;4882530;29;20029;-85
2022/11/14 03:45:59;;;;;;;73.32;50.13;;;;;;;3.03;100.00;100447.47;4859251;29;20055;-85
2022/11/14 03:48:25;;;;;;;83.10;53.85;;;;;;;3.00;100.00;100439.78;4859433;29;20389;-84
2022/11/14 03:50:50;;;;;;;95.68;55.50;;;;;;;2.95;100.00;100426.06;4859429;29;20037;-84
2022/11/14 03:53:15;;;;;;;76.20;51.30;;;;;;;2.97;100.00;100432.06;4859176;29;20026;-84
2022/11/14 03:55:43;;;;;;;81.20;48.45;;;;;;;3.03;100.00;100432.03;4859295;29;20041;-84
2022/11/14 03:58:08;;;;;;;72.85;49.35;;;;;;;3.00;100.00;100430.34;4859098;29;20037;-84
2022/11/14 04:00:34;;;;;;;94.22;56.00;;;;;;;3.04;100.00;100435.50;4859396;29;20133;-84
2022/11/14 04:02:59;;;;;;;74.43;46.33;;;;;;;3.06;100.00;100444.03;4859036;29;20025;-84
2022/11/14 04:05:24;;;;;;;102.05;57.13;;;;;;;3.00;100.00;100419.19;4859173;29;20037;-84
2022/11/14 04:07:50;;;;;;;90.00;52.17;;;;;;;3.06;100.00;100426.03;4859279;29;20137;-84
2022/11/14 04:10:16;;;;;;;118.05;55.90;;;;;;;2.96;100.00;100422.63;4858968;29;20424;-84
2022/11/14 04:12:47;;;;;;;80.43;48.22;;;;;;;2.97;100.00;100425.19;4859003;29;20089;-84
2022/11/14 04:15:13;;;;;;;71.72;48.28;;;;;;;3.02;100.00;100432.03;4858887;29;20593;-84
2022/11/14 04:17:38;;;;;;;100.40;56.00;;;;;;;2.93;100.00;100413.19;4890058;29;20037;-84
2022/11/14 04:20:04;;;;;;;117.22;53.20;;;;;;;2.99;100.00;100430.31;4898567;29;20430;-84
2022/11/14 04:22:29;;;;;;;101.13;53.15;;;;;;;2.90;100.00;100410.63;4898147;29;20477;-84
2022/11/14 04:24:55;;;;;;;122.85;57.90;;;;;;;2.97;100.00;100427.78;4881363;29;20029;-84
2022/11/14 04:27:20;;;;;;;103.13;52.10;;;;;;;2.90;100.00;100415.78;4898312;29;20109;-84
2022/11/14 04:29:45;;;;;;;102.85;55.60;;;;;;;2.99;100.00;100420.03;4881586;29;20108;-84
2022/11/14 04:32:11;;;;;;;72.75;46.65;;;;;;;2.93;100.00;100420.91;4898076;29;20036;-84
2022/11/14 04:34:36;;;;;;;85.28;47.28;;;;;;;3.05;100.00;100438.03;4881608;29;20017;-84
2022/11/14 04:37:01;;;;;;;106.93;53.33;;;;;;;3.05;100.00;100434.63;4898342;29;20025;-84
2022/11/14 04:39:27;;;;;;;115.30;53.88;;;;;;;3.00;100.00;100425.19;4881343;29;20021;-84
2022/11/14 04:41:52;;;;;;;104.82;48.20;;;;;;;3.00;100.00;100414.91;4898301;29;20032;-84
2022/11/14 04:44:17;;;;;;;115.75;50.80;;;;;;;2.94;100.00;100399.47;4881156;29;20119;-84
2022/11/14 04:46:43;;;;;;;109.80;51.42;;;;;;;3.01;100.00;100413.19;4881185;29;20476;-84
2022/11/14 04:49:08;;;;;;;80.35;48.90;;;;;;;3.00;100.00;100407.19;4881294;29;20398;-84
2022/11/14 04:51:34;;;;;;;77.03;47.75;;;;;;;3.02;100.00;100412.31;4881458;29;20601;-84
2022/11/14 04:53:59;;;;;;;89.57;50.15;;;;;;;3.08;100.00;100417.44;4881247;29;20435;-84
2022/11/14 04:56:24;;;;;;;116.82;53.13;;;;;;;3.15;100.00;100423.41;4898107;29;20092;-84
2022/11/14 04:58:50;;;;;;;149.35;54.15;;;;;;;3.18;100.00;100415.69;4897817;29;20052;-84
2022/11/14 05:01:15;;;;;;;104.90;52.28;;;;;;;3.20;100.00;100417.41;4880694;29;20354;-84
2022/11/14 05:03:41;;;;;;;146.60;56.35;;;;;;;3.17;100.00;100401.97;4881011;29;20025;-84
2022/11/14 05:06:06;;;;;;;136.10;54.08;;;;;;;3.11;100.00;100386.53;4839252;29;20467;-83
2022/11/14 05:08:32;;;;;;;107.90;50.70;;;;;;;3.19;100.00;100396.81;4824423;29;20042;-84
2022/11/14 05:10:58;;;;;;;109.93;54.97;;;;;;;3.27;100.00;100394.19;4839616;29;20149;-84
2022/11/14 05:13:23;;;;;;;96.50;50.53;;;;;;;3.28;100.00;100383.03;4839625;29;20189;-84
2022/11/14 05:15:48;;;;;;;153.55;58.70;;;;;;;3.36;100.00;100389.00;4839493;29;20029;-84
2022/11/14 05:18:14;;;;;;;218.23;56.17;;;;;;;3.35;100.00;100383.00;4839260;29;20041;-84
2022/11/14 05:20:39;;;;;;;84.75;47.85;;;;;;;3.18;100.00;100364.22;4824315;29;20123;-84
2022/11/14 05:23:04;;;;;;;235.27;53.88;;;;;;;3.33;100.00;100378.69;4839202;29;20053;-84
2022/11/14 05:25:30;;;;;;;98.72;49.88;;;;;;;3.39;100.00;100394.13;4839711;29;20201;-84
2022/11/14 05:27:55;;;;;;;81.57;47.60;;;;;;;3.34;100.00;100372.72;4839200;29;20069;-84
2022/11/14 05:30:20;;;;;;;77.97;45.22;;;;;;;3.34;100.00;100367.56;4823953;29;20042;-84
2022/11/14 05:32:46;;;;;;;78.88;46.38;;;;;;;3.43;100.00;100382.94;4824061;29;20102;-84
2022/11/14 05:35:12;;;;;;;79.63;46.80;;;;;;;3.35;100.00;100364.13;4838959;29;20037;-84
2022/11/14 05:37:37;;;;;;;82.38;45.95;;;;;;;3.44;100.00;100380.34;4880881;29;20036;-84
2022/11/14 05:40:04;;;;;;;105.88;50.05;;;;;;;3.48;100.00;100383.78;4897090;29;20103;-84
2022/11/14 05:42:29;;;;;;;133.93;52.35;;;;;;;3.41;100.00;100371.78;4880250;29;20067;-84
2022/11/14 05:44:54;;;;;;;89.38;49.15;;;;;;;3.38;100.00;100375.25;4897062;29;20056;-84
2022/11/14 05:47:20;;;;;;;79.38;45.50;;;;;;;3.45;100.00;100376.91;4897085;29;20434;-84
2022/11/14 05:49:45;;;;;;;147.38;55.97;;;;;;;3.51;100.00;100386.34;4880553;29;20020;-84
2022/11/14 05:52:10;;;;;;;89.20;50.05;;;;;;;3.45;100.00;100376.91;4897004;29;20036;-84
2022/11/14 05:54:36;;;;;;;114.25;49.63;;;;;;;3.42;100.00;100365.81;4897149;29;20088;-84
2022/11/14 05:57:03;;;;;;;117.90;50.70;;;;;;;3.46;100.00;100378.66;4880174;29;20468;-84
2022/11/14 05:59:28;;;;;;;95.93;48.22;;;;;;;3.43;100.00;100375.22;4896955;29;20080;-84
2022/11/14 06:01:53;;;;;;;129.45;48.85;;;;;;;3.42;100.00;100373.53;4897157;29;20024;-84
2022/11/14 06:04:19;;;;;;;171.10;50.95;;;;;;;3.53;100.00;100386.31;4896866;29;20043;-84
2022/11/14 06:06:44;;;;;;;137.43;48.67;;;;;;;3.49;100.00;100388.91;4880315;29;20024;-84
2022/11/14 06:09:10;;;;;;;95.43;47.28;;;;;;;3.51;100.00;100394.06;4879975;29;20025;-84
2022/11/14 06:11:35;;;;;;;125.28;49.38;;;;;;;3.49;100.00;100385.47;4896920;29;20064;-84
2022/11/14 06:14:01;;;;;;;104.32;49.47;;;;;;;3.54;100.00;100396.63;4879920;29;20052;-84
2022/11/14 06:16:26;;;;;;;105.65;47.50;;;;;;;3.55;100.00;100394.91;4896572;29;20063;-84
2022/11/14 06:18:52;;;;;;;142.25;51.92;;;;;;;3.54;100.00;100391.47;4896897;29;20350;-84
2022/11/14 06:21:20;;;;;;;224.32;55.60;;;;;;;3.59;100.00;100405.19;4896529;29;20025;-84
2022/11/14 06:23:46;;;;;;;156.10;52.40;;;;;;;3.56;100.00;100401.75;4896889;29;20059;-84
2022/11/14 06:26:20;;;;;;;152.88;53.17;;;;;;;3.53;100.00;100410.34;4896371;29;20060;-84
2022/11/14 06:28:46;;;;;;;162.70;54.38;;;;;;;3.60;100.00;100404.31;4879810;29;20381;-84
2022/11/14 06:31:12;;;;;;;110.35;51.60;;;;;;;3.50;100.00;100398.38;4896659;29;20374;-84
2022/11/14 06:33:37;;;;;;;193.25;59.70;;;;;;;3.62;100.00;100406.88;4856909;29;20070;-84
2022/11/14 06:36:05;;;;;;;120.90;50.60;;;;;;;3.61;100.00;100407.75;4857112;29;20447;-84
2022/11/14 06:38:32;;;;;;;203.43;52.42;;;;;;;3.63;100.00;100419.75;4856761;29;20044;-84
2022/11/14 06:41:11;;;;;;;127.50;52.40;;;;;;;3.60;100.00;100416.34;4841306;29;20062;-84
2022/11/14 06:43:39;;;;;;;232.82;58.45;;;;;;;3.58;100.00;100410.31;4857142;29;20112;-84
2022/11/14 06:46:06;;;;;;;141.85;52.42;;;;;;;3.63;100.00;100417.19;4857437;29;20468;-84
2022/11/14 06:48:32;;;;;;;95.03;48.08;;;;;;;3.68;100.00;100412.00;4860585;29;20390;-84
2022/11/14 06:50:59;;;;;;;190.85;60.13;;;;;;;3.73;100.00;100412.81;4860493;29;20042;-84
2022/11/14 06:53:27;;;;;;;205.50;55.42;;;;;;;3.66;100.00;100399.09;4860129;29;20086;-84
2022/11/14 06:55:56;;;;;;;178.63;57.65;;;;;;;3.76;100.00;100405.06;4844969;29;20040;-84
2022/11/14 06:58:24;;;;;;;247.15;57.55;;;;;;;3.71;100.00;100397.38;4859968;29;20493;-84
2022/11/14 07:00:49;;;;;;;108.68;46.83;;;;;;;3.69;100.00;100403.38;4860350;29;20038;-84
2022/11/14 07:03:14;;;;;;;110.85;51.47;;;;;;;3.68;100.00;100397.38;4860068;29;20030;-84
2022/11/14 07:05:40;;;;;;;93.65;47.13;;;;;;;3.61;100.00;100384.56;4860310;29;20186;-84
2022/11/14 07:08:05;;;;;;;124.03;50.67;;;;;;;3.68;100.00;100393.97;4860519;29;20123;-84
2022/11/14 07:10:30;;;;;;;204.40;54.33;;;;;;;3.62;100.00;100373.38;4870883;29;20473;-84
2022/11/14 07:12:56;;;;;;;82.20;44.92;;;;;;;3.60;100.00;100370.81;4899806;29;20020;-84
2022/11/14 07:15:21;;;;;;;100.82;47.80;;;;;;;3.68;100.00;100381.09;4900006;29;20031;-84
2022/11/14 07:17:47;;;;;;;85.43;43.25;;;;;;;3.67;100.00;100387.97;4882892;29;20025;-84
2022/11/14 07:20:14;;;;;;;73.80;42.47;;;;;;;3.68;100.00;100381.09;4899455;29;20033;-84
2022/11/14 07:22:39;;;;;;;116.65;48.65;;;;;;;3.64;100.00;100379.38;4899928;29;20051;-84
2022/11/14 07:25:05;;;;;;;128.77;48.00;;;;;;;3.61;100.00;100375.09;4899637;29;20028;-84
2022/11/14 07:27:30;;;;;;;105.35;47.58;;;;;;;3.64;100.00;100371.66;4899483;29;20059;-84
2022/11/14 07:29:55;;;;;;;79.05;44.22;;;;;;;3.63;100.00;100355.34;4899941;29;20370;-84
2022/11/14 07:32:21;;;;;;;82.32;41.85;;;;;;;3.70;100.00;100369.88;4882462;29;20559;-84
2022/11/14 07:34:46;;;;;;;76.63;42.25;;;;;;;3.75;100.00;100362.16;4899415;29;20025;-84
2022/11/14 07:37:12;;;;;;;125.50;52.13;;;;;;;3.73;100.00;100346.69;4899317;29;20028;-84
2022/11/14 07:39:37;;;;;;;81.80;45.65;;;;;;;3.75;100.00;100339.81;4882417;29;20071;-84
2022/11/14 07:42:02;;;;;;;97.78;48.42;;;;;;;3.86;100.00;100351.75;4882615;29;20024;-84
2022/11/14 07:44:28;;;;;;;80.50;44.22;;;;;;;3.82;100.00;100347.47;4899046;29;20044;-84
2022/11/14 07:46:53;;;;;;;81.32;44.42;;;;;;;3.91;100.00;100355.97;4899265;29;20455;-85
2022/11/14 07:49:18;;;;;;;85.32;45.20;;;;;;;3.95;100.00;100351.66;4898948;29;20522;-84
2022/11/14 07:51:44;;;;;;;80.03;44.65;;;;;;;4.00;100.00;100344.75;4899139;29;20103;-85
2022/11/14 07:54:10;;;;;;;76.15;42.42;;;;;;;3.91;100.00;100334.50;4882142;29;20496;-85
2022/11/14 07:56:36;;;;;;;91.88;48.30;;;;;;;4.04;100.00;100348.16;4899168;29;20055;-84
2022/11/14 07:59:01;;;;;;;108.78;48.67;;;;;;;4.01;100.00;100333.59;4898160;29;20107;-84
2022/11/14 08:01:27;;;;;;;107.72;49.53;;;;;;;4.09;100.00;100346.38;4898833;29;20056;-85
2022/11/14 08:03:52;;;;;;;100.25;49.45;;;;;;;4.11;100.00;100347.22;4881991;29;20020;-84
2022/11/14 08:06:17;;;;;;;83.53;45.75;;;;;;;4.06;100.00;100342.13;4898723;29;20063;-85
2022/11/14 08:08:43;;;;;;;88.10;49.38;;;;;;;4.09;100.00;100336.94;4898742;29;20111;-85
2022/11/14 08:11:08;;;;;;;107.45;50.63;;;;;;;4.09;100.00;100336.06;4881438;29;20032;-84
2022/11/14 08:13:34;;;;;;;89.53;47.08;;;;;;;4.16;100.00;100325.69;4881692;29;20025;-84
2022/11/14 08:16:08;;;;;;;81.32;43.90;;;;;;;4.19;100.00;100319.66;4882130;29;20120;-84
2022/11/14 08:18:34;;;;;;;83.68;45.10;;;;;;;4.22;100.00;100328.22;4881390;29;20017;-82
2022/11/14 08:21:02;;;;;;;121.80;54.67;;;;;;;4.23;100.00;100329.06;4881731;29;20115;-83
2022/11/14 08:23:28;;;;;;;96.90;50.50;;;;;;;4.25;100.00;100328.16;4898225;29;20442;-83
2022/11/14 08:25:53;;;;;;;96.22;49.08;;;;;;;4.30;100.00;100329.84;4881646;29;20061;-83
2022/11/14 08:28:18;;;;;;;197.85;60.97;;;;;;;4.29;100.00;100318.69;4881282;29;20080;-83
2022/11/14 08:30:44;;;;;;;118.72;56.17;;;;;;;4.28;100.00;100323.88;4898395;29;20028;-83
2022/11/14 08:33:09;;;;;;;157.80;60.63;;;;;;;4.29;100.00;100318.69;4881589;29;20479;-83
2022/11/14 08:35:35;;;;;;;107.35;53.50;;;;;;;4.33;100.00;100317.78;4881282;29;20028;-83
2022/11/14 08:38:01;;;;;;;120.10;56.08;;;;;;;4.39;100.00;100325.47;4877006;29;20037;-83
2022/11/14 08:40:27;;;;;;;95.00;48.33;;;;;;;4.39;100.00;100315.16;4877060;29;20124;-83
2022/11/14 08:42:58;;;;;;;104.60;52.17;;;;;;;4.42;100.00;100316.81;4877222;29;20041;-83
2022/11/14 08:45:23;;;;;;;92.15;49.33;;;;;;;4.45;100.00;100307.34;4876894;29;20048;-83
2022/11/14 08:47:52;;;;;;;102.03;52.05;;;;;;;4.47;100.00;100318.50;4861480;29;20385;-83
2022/11/14 08:50:17;;;;;;;92.43;48.50;;;;;;;4.49;100.00;100311.59;4861156;29;20029;-83
2022/11/14 08:52:48;;;;;;;91.88;47.83;;;;;;;4.52;100.00;100325.34;4861312;29;20453;-83
2022/11/14 08:55:13;;;;;;;118.70;58.28;;;;;;;4.48;100.00;100309.88;4876984;29;20418;-83
2022/11/14 08:57:39;;;;;;;112.38;58.28;;;;;;;4.49;100.00;100300.41;4860980;29;20089;-83
2022/11/14 09:00:05;;;;;;;99.75;51.58;;;;;;;4.57;100.00;100306.34;4876995;29;20032;-83
2022/11/14 09:02:30;;;;;;;119.20;57.40;;;;;;;4.61;100.00;100302.88;4876593;29;20085;-83
2022/11/14 09:04:55;;;;;;;95.68;48.88;;;;;;;4.66;100.00;100306.22;4876705;29;20037;-83
2022/11/14 09:07:20;;;;;;;99.50;52.63;;;;;;;4.72;100.00;100297.59;4876746;29;20039;-83
2022/11/14 09:09:46;;;;;;;92.40;49.38;;;;;;;4.66;100.00;100292.47;4877186;29;20123;-83
2022/11/14 09:12:11;;;;;;;109.38;59.72;;;;;;;4.74;100.00;100294.09;4880819;29;20112;-83
2022/11/14 09:14:36;;;;;;;104.43;55.70;;;;;;;4.77;100.00;100305.28;4880681;29;20032;-83
2022/11/14 09:17:02;;;;;;;95.43;50.33;;;;;;;4.77;100.00;100295.78;4880705;29;20052;-83
2022/11/14 09:19:27;;;;;;;107.18;58.53;;;;;;;4.83;100.00;100294.84;4857508;29;20037;-83
2022/11/14 09:21:52;;;;;;;105.70;54.72;;;;;;;4.85;100.00;100287.97;4857582;29;20068;-83
2022/11/14 09:24:18;;;;;;;121.35;58.13;;;;;;;4.87;100.00;100293.94;4857948;29;20034;-83
2022/11/14 09:26:43;;;;;;;113.10;58.63;;;;;;;4.87;100.00;100291.34;4857774;29;20034;-83
2022/11/14 09:29:08;;;;;;;107.07;57.13;;;;;;;4.88;100.00;100291.31;4858126;29;20037;-83
2022/11/14 09:31:34;;;;;;;107.53;56.92;;;;;;;4.89;100.00;100287.06;4842095;29;20032;-83
2022/11/14 09:33:59;;;;;;;116.85;62.28;;;;;;;4.90;100.00;100296.50;4857687;29;20072;-83
2022/11/14 09:36:24;;;;;;;109.50;57.80;;;;;;;4.88;100.00;100286.16;4841930;29;20067;-83
2022/11/14 09:38:50;;;;;;;97.22;51.70;;;;;;;4.90;100.00;100268.94;4842079;29;20075;-83
2022/11/14 09:41:32;;;;;;;91.18;49.10;;;;;;;4.97;100.00;100272.28;4857782;29;20117;-83
2022/11/14 09:44:24;;;;;;;94.22;52.92;;;;;;;5.03;100.00;100276.53;4857605;29;20021;-83
2022/11/14 09:46:57;;;;;;;124.93;61.10;;;;;;;4.94;100.00;100278.34;4857660;29;20037;-83
2022/11/14 09:49:34;;;;;;;114.68;60.40;;;;;;;4.93;100.00;100253.44;4843996;29;20059;-83
2022/11/14 09:52:12;;;;;;;104.78;57.60;;;;;;;4.95;100.00;100259.41;4897347;29;20040;-83
2022/11/14 09:54:50;;;;;;;103.03;58.10;;;;;;;5.05;100.00;100274.75;4896869;29;20032;-83
2022/11/14 09:57:18;;;;;;;100.88;56.33;;;;;;;5.09;100.00;100266.09;4896740;29;20036;-83
2022/11/14 09:59:43;;;;;;;105.80;62.67;;;;;;;5.11;100.00;100272.13;4897001;29;20023;-83
2022/11/14 10:02:27;;;;;;;96.07;54.55;;;;;;;5.26;100.00;100284.78;4896961;29;20028;-83
2022/11/14 10:05:21;;;;;;;91.90;53.08;;;;;;;5.32;100.00;100279.53;4880113;29;20038;-83
2022/11/14 10:08:19;;;;;;;112.80;63.28;;;;;;;5.33;100.00;100281.25;4897099;29;20056;-83
2022/11/14 10:10:52;;;;;;;107.05;59.10;;;;;;;5.26;100.00;100267.56;4896823;29;20392;-83
2022/11/14 10:13:35;;;;;;;101.15;56.25;;;;;;;5.22;100.00;100267.63;4896871;29;20036;-83
2022/11/14 10:16:01;;;;;;;100.72;56.60;;;;;;;5.23;100.00;100259.88;4896719;29;20073;-83
2022/11/14 10:18:38;;;;;;;103.47;59.40;;;;;;;5.29;100.00;100265.81;4879770;29;20052;-83
2022/11/14 10:21:38;;;;;;;107.00;57.20;;;;;;;5.30;100.00;100257.19;4897117;29;20016;-83
2022/11/14 10:24:21;;;;;;;112.18;59.45;;;;;;;5.30;100.00;100254.59;4883827;29;20065;-83
2022/11/14 10:27:11;;;;;;;102.75;53.08;;;;;;;5.39;100.00;100257.03;4883963;29;20024;-83
2022/11/14 10:29:45;;;;;;;104.47;57.47;;;;;;;5.45;100.00;100255.22;4883666;29;20025;-83
2022/11/14 10:32:18;;;;;;;105.85;60.00;;;;;;;5.40;100.00;100243.25;4900807;29;20024;-83
2022/11/14 10:35:01;;;;;;;101.68;55.65;;;;;;;5.44;100.00;100245.78;4900143;29;20080;-83
2022/11/14 10:37:37;;;;;;;98.93;54.08;;;;;;;5.46;100.00;100240.56;4883445;29;20025;-83
2022/11/14 10:40:11;;;;;;;108.55;62.97;;;;;;;5.46;100.00;100245.72;4900372;29;20523;-83
2022/11/14 10:42:40;;;;;;;91.05;52.67;;;;;;;5.44;100.00;100234.59;4883243;29;20120;-83
2022/11/14 10:45:10;;;;;;;108.70;60.13;;;;;;;5.43;100.00;100219.94;4900226;29;20357;-84
2022/11/14 10:47:40;;;;;;;113.18;62.83;;;;;;;5.56;100.00;100236.94;4883396;29;20119;-83
2022/11/14 10:50:49;;;;;;;95.63;55.38;;;;;;;5.64;100.00;100229.91;4900373;29;20063;-83
2022/11/14 10:53:27;;;;;;;98.85;53.10;;;;;;;5.61;100.00;100216.22;4823589;29;20042;-83
2022/11/14 10:55:54;;;;;;;101.07;55.75;;;;;;;5.71;100.00;100225.50;4808592;29;20030;-83
2022/11/14 10:58:20;;;;;;;110.85;62.83;;;;;;;5.74;100.00;100230.63;4823541;29;20042;-83
2022/11/14 11:00:45;;;;;;;92.72;52.60;;;;;;;5.80;100.00;100217.59;4808159;29;20110;-83
2022/11/14 11:03:11;;;;;;;116.13;65.35;;;;;;;5.81;100.00;100210.69;4823563;29;20042;-83
2022/11/14 11:05:46;;;;;;;93.47;53.20;;;;;;;5.93;100.00;100219.09;4823379;29;20026;-83
2022/11/14 11:13:57;;;;;;;95.43;55.65;;;;;;;6.07;100.00;100205.03;4823501;29;20107;-83